sensor_id;sensor_type;location;lat;lon;timestamp;P1;durP1;ratioP1;P2;durP2;ratioP2
58252;SDS011;44050;48.884;8.762;2022-10-31T12:30:21;3.72;;;1.85;;
58252;SDS011;44050;48.884;8.762;2022-10-31T12:43:46;3.17;;;2.10;;
58252;SDS011;44050;48.884;8.762;2022-10-31T12:47:09;2.63;;;1.70;;
58252;SDS011;44050;48.884;8.762;2022-10-31T12:51:54;2.35;;;2.15;;
58252;SDS011;44050;48.884;8.762;2022-10-31T12:54:40;9.15;;;1.60;;
58252;SDS011;44050;48.884;8.762;2022-10-31T13:02:32;2.03;;;1.90;;
58252;SDS011;44050;48.884;8.762;2022-10-31T13:05:51;3.15;;;1.70;;
58252;SDS011;44050;48.884;8.762;2022-10-31T13:12:58;2.17;;;1.47;;
58252;SDS011;44050;48.884;8.762;2022-10-31T13:15:32;2.08;;;1.50;;
58252;SDS011;44050;48.884;8.762;2022-10-31T13:18:05;2.53;;;2.33;;
58252;SDS011;44050;48.884;8.762;2022-10-31T13:20:43;5.43;;;2.42;;
58252;SDS011;44050;48.884;8.762;2022-10-31T13:23:29;4.72;;;2.60;;
58252;SDS011;44050;48.884;8.762;2022-10-31T13:26:01;2.30;;;2.10;;
58252;SDS011;44050;48.884;8.762;2022-10-31T13:28:38;2.70;;;1.80;;
58252;SDS011;44050;48.884;8.762;2022-10-31T13:31:11;4.30;;;2.30;;
58252;SDS011;44050;48.884;8.762;2022-10-31T13:33:47;4.90;;;2.00;;
58252;SDS011;44050;48.884;8.762;2022-10-31T13:36:33;2.35;;;1.75;;
58252;SDS011;44050;48.884;8.762;2022-10-31T13:39:14;3.88;;;1.63;;
58252;SDS011;44050;48.884;8.762;2022-10-31T13:44:22;1.95;;;1.67;;
58252;SDS011;44050;48.884;8.762;2022-10-31T13:46:56;4.65;;;2.45;;
58252;SDS011;44050;48.884;8.762;2022-10-31T14:00:05;1.38;;;1.23;;
58252;SDS011;44050;48.884;8.762;2022-10-31T14:02:45;1.65;;;1.55;;
58252;SDS011;44050;48.884;8.762;2022-10-31T14:05:23;2.33;;;2.13;;
58252;SDS011;44050;48.884;8.762;2022-10-31T14:07:56;1.98;;;1.60;;
58252;SDS011;44050;48.884;8.762;2022-10-31T14:10:36;4.93;;;2.53;;
58252;SDS011;44050;48.884;8.762;2022-10-31T14:13:17;3.83;;;2.17;;
58252;SDS011;44050;48.884;8.762;2022-10-31T14:15:58;3.83;;;2.55;;
58252;SDS011;44050;48.884;8.762;2022-10-31T14:18:34;4.55;;;2.75;;
58252;SDS011;44050;48.884;8.762;2022-10-31T14:23:45;3.28;;;2.17;;
58252;SDS011;44050;48.884;8.762;2022-10-31T14:27:34;5.97;;;2.45;;
58252;SDS011;44050;48.884;8.762;2022-10-31T14:30:16;4.15;;;2.67;;
58252;SDS011;44050;48.884;8.762;2022-10-31T14:32:59;7.22;;;2.90;;
58252;SDS011;44050;48.884;8.762;2022-10-31T14:35:37;5.80;;;2.28;;
58252;SDS011;44050;48.884;8.762;2022-10-31T14:38:23;6.20;;;2.95;;
58252;SDS011;44050;48.884;8.762;2022-10-31T14:48:52;3.28;;;2.47;;
58252;SDS011;44050;48.884;8.762;2022-10-31T14:52:11;2.00;;;1.83;;
58252;SDS011;44050;48.884;8.762;2022-10-31T14:54:47;2.38;;;2.17;;
58252;SDS011;44050;48.884;8.762;2022-10-31T14:57:30;4.22;;;2.13;;
58252;SDS011;44050;48.884;8.762;2022-10-31T15:00:05;5.00;;;2.95;;
58252;SDS011;44050;48.884;8.762;2022-10-31T15:02:42;7.57;;;2.13;;
58252;SDS011;44050;48.884;8.762;2022-10-31T15:05:16;2.13;;;1.95;;
58252;SDS011;44050;48.884;8.762;2022-10-31T15:07:48;3.05;;;2.40;;
58252;SDS011;44050;48.884;8.762;2022-10-31T15:10:26;3.65;;;3.00;;
58252;SDS011;44050;48.884;8.762;2022-10-31T15:13:20;3.65;;;3.35;;
58252;SDS011;44050;48.884;8.762;2022-10-31T15:18:21;3.58;;;2.40;;
58252;SDS011;44050;48.884;8.762;2022-10-31T15:20:52;7.90;;;2.17;;
58252;SDS011;44050;48.884;8.762;2022-10-31T15:23:27;3.60;;;2.97;;
58252;SDS011;44050;48.884;8.762;2022-10-31T15:26:03;3.88;;;2.63;;
58252;SDS011;44050;48.884;8.762;2022-10-31T15:28:34;4.32;;;2.35;;
58252;SDS011;44050;48.884;8.762;2022-10-31T15:31:04;4.97;;;2.25;;
58252;SDS011;44050;48.884;8.762;2022-10-31T15:36:06;4.25;;;1.77;;
58252;SDS011;44050;48.884;8.762;2022-10-31T15:38:48;1.92;;;1.70;;
58252;SDS011;44050;48.884;8.762;2022-10-31T15:41:47;7.20;;;1.40;;
58252;SDS011;44050;48.884;8.762;2022-10-31T15:44:19;2.10;;;1.80;;
58252;SDS011;44050;48.884;8.762;2022-10-31T15:46:54;2.58;;;2.10;;
58252;SDS011;44050;48.884;8.762;2022-10-31T15:52:03;18.42;;;13.07;;
58252;SDS011;44050;48.884;8.762;2022-10-31T15:54:35;19.75;;;12.43;;
58252;SDS011;44050;48.884;8.762;2022-10-31T15:57:09;30.17;;;19.67;;
58252;SDS011;44050;48.884;8.762;2022-10-31T15:59:41;25.52;;;14.60;;
58252;SDS011;44050;48.884;8.762;2022-10-31T16:02:13;33.38;;;22.35;;
58252;SDS011;44050;48.884;8.762;2022-10-31T16:04:48;41.72;;;30.25;;
58252;SDS011;44050;48.884;8.762;2022-10-31T16:07:19;26.50;;;18.27;;
58252;SDS011;44050;48.884;8.762;2022-10-31T16:09:52;20.80;;;13.20;;
58252;SDS011;44050;48.884;8.762;2022-10-31T16:12:24;18.27;;;12.98;;
58252;SDS011;44050;48.884;8.762;2022-10-31T16:14:55;12.40;;;11.15;;
58252;SDS011;44050;48.884;8.762;2022-10-31T16:20:39;14.37;;;8.70;;
58252;SDS011;44050;48.884;8.762;2022-10-31T16:24:03;11.73;;;6.80;;
58252;SDS011;44050;48.884;8.762;2022-10-31T16:26:35;8.00;;;6.10;;
58252;SDS011;44050;48.884;8.762;2022-10-31T16:31:37;7.67;;;5.63;;
58252;SDS011;44050;48.884;8.762;2022-10-31T16:34:15;9.15;;;5.38;;
58252;SDS011;44050;48.884;8.762;2022-10-31T16:36:47;9.48;;;5.10;;
58252;SDS011;44050;48.884;8.762;2022-10-31T16:39:18;3.42;;;3.15;;
58252;SDS011;44050;48.884;8.762;2022-10-31T16:44:25;3.75;;;3.22;;
58252;SDS011;44050;48.884;8.762;2022-10-31T16:47:06;4.47;;;2.80;;
58252;SDS011;44050;48.884;8.762;2022-10-31T16:49:37;4.70;;;2.85;;
58252;SDS011;44050;48.884;8.762;2022-10-31T16:52:08;3.42;;;3.13;;
58252;SDS011;44050;48.884;8.762;2022-10-31T16:57:17;2.87;;;2.50;;
58252;SDS011;44050;48.884;8.762;2022-10-31T16:59:48;3.10;;;2.83;;
58252;SDS011;44050;48.884;8.762;2022-10-31T17:02:22;3.47;;;3.17;;
58252;SDS011;44050;48.884;8.762;2022-10-31T17:04:53;2.33;;;2.10;;
58252;SDS011;44050;48.884;8.762;2022-10-31T17:07:23;6.70;;;2.45;;
58252;SDS011;44050;48.884;8.762;2022-10-31T17:09:54;3.42;;;2.28;;
58252;SDS011;44050;48.884;8.762;2022-10-31T17:14:55;7.10;;;2.87;;
58252;SDS011;44050;48.884;8.762;2022-10-31T17:17:26;3.53;;;2.40;;
58252;SDS011;44050;48.884;8.762;2022-10-31T17:19:56;2.67;;;2.28;;
58252;SDS011;44050;48.884;8.762;2022-10-31T17:22:27;3.95;;;3.08;;
58252;SDS011;44050;48.884;8.762;2022-10-31T17:24:58;3.42;;;2.47;;
58252;SDS011;44050;48.884;8.762;2022-10-31T17:27:29;4.85;;;2.75;;
58252;SDS011;44050;48.884;8.762;2022-10-31T17:32:30;1.80;;;1.70;;
58252;SDS011;44050;48.884;8.762;2022-10-31T17:35:01;2.70;;;2.10;;
58252;SDS011;44050;48.884;8.762;2022-10-31T17:37:31;7.13;;;3.30;;
58252;SDS011;44050;48.884;8.762;2022-10-31T17:40:02;11.18;;;5.13;;
58252;SDS011;44050;48.884;8.762;2022-10-31T17:42:33;7.63;;;5.22;;
58252;SDS011;44050;48.884;8.762;2022-10-31T17:45:07;3.60;;;2.33;;
58252;SDS011;44050;48.884;8.762;2022-10-31T17:47:38;3.05;;;2.50;;
58252;SDS011;44050;48.884;8.762;2022-10-31T17:50:08;4.55;;;2.28;;
58252;SDS011;44050;48.884;8.762;2022-10-31T17:52:39;10.88;;;2.75;;
58252;SDS011;44050;48.884;8.762;2022-10-31T17:55:10;2.22;;;1.95;;
58252;SDS011;44050;48.884;8.762;2022-10-31T17:57:41;7.05;;;2.75;;
58252;SDS011;44050;48.884;8.762;2022-10-31T18:00:17;3.13;;;2.83;;
58252;SDS011;44050;48.884;8.762;2022-10-31T18:02:49;3.40;;;2.85;;
58252;SDS011;44050;48.884;8.762;2022-10-31T18:05:20;8.02;;;2.72;;
58252;SDS011;44050;48.884;8.762;2022-10-31T18:07:50;5.05;;;2.67;;
58252;SDS011;44050;48.884;8.762;2022-10-31T18:10:21;5.80;;;2.47;;
58252;SDS011;44050;48.884;8.762;2022-10-31T18:12:52;3.70;;;2.85;;
58252;SDS011;44050;48.884;8.762;2022-10-31T18:15:22;3.20;;;2.90;;
58252;SDS011;44050;48.884;8.762;2022-10-31T18:17:53;4.10;;;3.70;;
58252;SDS011;44050;48.884;8.762;2022-10-31T18:20:24;4.10;;;2.88;;
58252;SDS011;44050;48.884;8.762;2022-10-31T18:22:55;5.32;;;3.17;;
58252;SDS011;44050;48.884;8.762;2022-10-31T18:25:25;9.38;;;2.05;;
58252;SDS011;44050;48.884;8.762;2022-10-31T18:27:56;13.27;;;3.05;;
58252;SDS011;44050;48.884;8.762;2022-10-31T18:30:27;3.25;;;2.65;;
58252;SDS011;44050;48.884;8.762;2022-10-31T18:32:57;3.55;;;2.38;;
58252;SDS011;44050;48.884;8.762;2022-10-31T18:35:28;5.60;;;4.00;;
58252;SDS011;44050;48.884;8.762;2022-10-31T18:37:59;7.28;;;5.40;;
58252;SDS011;44050;48.884;8.762;2022-10-31T18:40:30;9.27;;;5.00;;
58252;SDS011;44050;48.884;8.762;2022-10-31T18:43:01;10.60;;;5.57;;
58252;SDS011;44050;48.884;8.762;2022-10-31T18:45:32;3.83;;;3.15;;
58252;SDS011;44050;48.884;8.762;2022-10-31T18:48:03;4.10;;;3.25;;
58252;SDS011;44050;48.884;8.762;2022-10-31T18:50:34;3.50;;;2.35;;
58252;SDS011;44050;48.884;8.762;2022-10-31T18:53:08;3.65;;;3.10;;
58252;SDS011;44050;48.884;8.762;2022-10-31T18:55:39;4.03;;;2.35;;
58252;SDS011;44050;48.884;8.762;2022-10-31T18:58:10;3.15;;;2.03;;
58252;SDS011;44050;48.884;8.762;2022-10-31T19:00:41;3.45;;;2.40;;
58252;SDS011;44050;48.884;8.762;2022-10-31T19:03:12;2.75;;;2.47;;
58252;SDS011;44050;48.884;8.762;2022-10-31T19:05:43;4.20;;;2.60;;
58252;SDS011;44050;48.884;8.762;2022-10-31T19:08:14;5.35;;;3.33;;
58252;SDS011;44050;48.884;8.762;2022-10-31T19:10:44;8.25;;;3.15;;
58252;SDS011;44050;48.884;8.762;2022-10-31T19:13:15;3.33;;;2.47;;
58252;SDS011;44050;48.884;8.762;2022-10-31T19:15:46;5.72;;;3.40;;
58252;SDS011;44050;48.884;8.762;2022-10-31T19:18:17;2.58;;;1.90;;
58252;SDS011;44050;48.884;8.762;2022-10-31T19:23:18;4.87;;;3.07;;
58252;SDS011;44050;48.884;8.762;2022-10-31T19:25:49;3.70;;;2.50;;
58252;SDS011;44050;48.884;8.762;2022-10-31T19:28:20;5.13;;;2.22;;
58252;SDS011;44050;48.884;8.762;2022-10-31T19:30:51;3.15;;;2.10;;
58252;SDS011;44050;48.884;8.762;2022-10-31T19:33:22;4.30;;;2.08;;
58252;SDS011;44050;48.884;8.762;2022-10-31T19:36:03;1.92;;;1.83;;
58252;SDS011;44050;48.884;8.762;2022-10-31T19:38:35;4.43;;;3.08;;
58252;SDS011;44050;48.884;8.762;2022-10-31T19:41:07;2.20;;;2.00;;
58252;SDS011;44050;48.884;8.762;2022-10-31T19:43:38;7.80;;;4.45;;
58252;SDS011;44050;48.884;8.762;2022-10-31T19:46:10;4.35;;;3.95;;
58252;SDS011;44050;48.884;8.762;2022-10-31T19:48:41;5.20;;;4.72;;
58252;SDS011;44050;48.884;8.762;2022-10-31T19:51:13;2.17;;;1.98;;
58252;SDS011;44050;48.884;8.762;2022-10-31T19:53:44;3.70;;;3.10;;
58252;SDS011;44050;48.884;8.762;2022-10-31T19:56:16;2.95;;;2.70;;
58252;SDS011;44050;48.884;8.762;2022-10-31T19:58:47;3.15;;;1.70;;
58252;SDS011;44050;48.884;8.762;2022-10-31T20:01:21;2.38;;;1.92;;
58252;SDS011;44050;48.884;8.762;2022-10-31T20:03:52;2.30;;;2.10;;
58252;SDS011;44050;48.884;8.762;2022-10-31T20:08:54;3.13;;;1.75;;
58252;SDS011;44050;48.884;8.762;2022-10-31T20:11:26;5.80;;;2.58;;
58252;SDS011;44050;48.884;8.762;2022-10-31T20:16:36;3.30;;;2.78;;
58252;SDS011;44050;48.884;8.762;2022-10-31T20:19:07;5.28;;;3.30;;
58252;SDS011;44050;48.884;8.762;2022-10-31T20:21:38;4.85;;;4.18;;
58252;SDS011;44050;48.884;8.762;2022-10-31T20:24:09;2.67;;;2.47;;
58252;SDS011;44050;48.884;8.762;2022-10-31T20:26:40;3.08;;;2.78;;
58252;SDS011;44050;48.884;8.762;2022-10-31T20:29:12;5.80;;;2.15;;
58252;SDS011;44050;48.884;8.762;2022-10-31T20:31:45;3.22;;;2.28;;
58252;SDS011;44050;48.884;8.762;2022-10-31T20:34:16;2.10;;;1.90;;
58252;SDS011;44050;48.884;8.762;2022-10-31T20:36:47;5.05;;;1.95;;
58252;SDS011;44050;48.884;8.762;2022-10-31T20:39:18;2.38;;;1.70;;
58252;SDS011;44050;48.884;8.762;2022-10-31T20:41:49;2.22;;;1.90;;
58252;SDS011;44050;48.884;8.762;2022-10-31T20:44:19;2.63;;;1.80;;
58252;SDS011;44050;48.884;8.762;2022-10-31T20:46:51;4.18;;;2.38;;
58252;SDS011;44050;48.884;8.762;2022-10-31T20:49:22;2.63;;;2.42;;
58252;SDS011;44050;48.884;8.762;2022-10-31T20:51:53;3.20;;;2.83;;
58252;SDS011;44050;48.884;8.762;2022-10-31T20:54:23;5.20;;;2.13;;
58252;SDS011;44050;48.884;8.762;2022-10-31T20:56:54;2.65;;;2.45;;
58252;SDS011;44050;48.884;8.762;2022-10-31T20:59:25;3.90;;;2.63;;
58252;SDS011;44050;48.884;8.762;2022-10-31T21:01:56;4.35;;;2.38;;
58252;SDS011;44050;48.884;8.762;2022-10-31T21:04:29;2.20;;;2.00;;
58252;SDS011;44050;48.884;8.762;2022-10-31T21:07:00;6.25;;;2.97;;
58252;SDS011;44050;48.884;8.762;2022-10-31T21:09:31;2.53;;;1.85;;
58252;SDS011;44050;48.884;8.762;2022-10-31T21:12:02;1.73;;;1.63;;
58252;SDS011;44050;48.884;8.762;2022-10-31T21:14:33;1.92;;;1.52;;
58252;SDS011;44050;48.884;8.762;2022-10-31T21:17:03;2.08;;;1.80;;
58252;SDS011;44050;48.884;8.762;2022-10-31T21:19:34;2.95;;;1.92;;
58252;SDS011;44050;48.884;8.762;2022-10-31T21:22:05;3.40;;;2.42;;
58252;SDS011;44050;48.884;8.762;2022-10-31T21:24:36;2.97;;;1.85;;
58252;SDS011;44050;48.884;8.762;2022-10-31T21:27:07;2.85;;;2.47;;
58252;SDS011;44050;48.884;8.762;2022-10-31T21:29:38;2.92;;;1.48;;
58252;SDS011;44050;48.884;8.762;2022-10-31T21:32:08;4.68;;;2.15;;
58252;SDS011;44050;48.884;8.762;2022-10-31T21:34:39;3.90;;;2.10;;
58252;SDS011;44050;48.884;8.762;2022-10-31T21:37:10;1.23;;;1.13;;
58252;SDS011;44050;48.884;8.762;2022-10-31T21:39:41;1.75;;;1.65;;
58252;SDS011;44050;48.884;8.762;2022-10-31T21:44:43;2.20;;;2.00;;
58252;SDS011;44050;48.884;8.762;2022-10-31T21:47:14;6.38;;;2.72;;
58252;SDS011;44050;48.884;8.762;2022-10-31T21:52:15;3.43;;;2.00;;
58252;SDS011;44050;48.884;8.762;2022-10-31T21:54:46;3.15;;;1.73;;
58252;SDS011;44050;48.884;8.762;2022-10-31T21:57:17;2.08;;;1.98;;
58252;SDS011;44050;48.884;8.762;2022-10-31T21:59:48;7.07;;;2.30;;
58252;SDS011;44050;48.884;8.762;2022-10-31T22:02:19;2.30;;;1.95;;
58252;SDS011;44050;48.884;8.762;2022-10-31T22:04:50;2.60;;;2.33;;
58252;SDS011;44050;48.884;8.762;2022-10-31T22:07:21;6.30;;;1.92;;
58252;SDS011;44050;48.884;8.762;2022-10-31T22:09:52;4.97;;;1.88;;
58252;SDS011;44050;48.884;8.762;2022-10-31T22:12:23;1.70;;;1.42;;
58252;SDS011;44050;48.884;8.762;2022-10-31T22:14:53;7.07;;;2.33;;
58252;SDS011;44050;48.884;8.762;2022-10-31T22:17:24;2.55;;;1.52;;
58252;SDS011;44050;48.884;8.762;2022-10-31T22:19:55;3.75;;;1.60;;
58252;SDS011;44050;48.884;8.762;2022-10-31T22:22:26;3.65;;;2.22;;
58252;SDS011;44050;48.884;8.762;2022-10-31T22:25:06;5.15;;;2.85;;
58252;SDS011;44050;48.884;8.762;2022-10-31T22:27:48;1.42;;;1.20;;
58252;SDS011;44050;48.884;8.762;2022-10-31T22:30:38;1.70;;;1.60;;
58252;SDS011;44050;48.884;8.762;2022-10-31T22:33:17;3.45;;;2.38;;
58252;SDS011;44050;48.884;8.762;2022-10-31T22:35:49;2.22;;;1.95;;
58252;SDS011;44050;48.884;8.762;2022-10-31T22:38:23;1.52;;;1.35;;
58252;SDS011;44050;48.884;8.762;2022-10-31T22:40:57;7.20;;;1.65;;
58252;SDS011;44050;48.884;8.762;2022-10-31T22:43:39;2.30;;;2.10;;
58252;SDS011;44050;48.884;8.762;2022-10-31T22:46:12;1.75;;;1.45;;
58252;SDS011;44050;48.884;8.762;2022-10-31T22:48:44;1.40;;;1.20;;
58252;SDS011;44050;48.884;8.762;2022-10-31T22:51:17;3.15;;;1.65;;
58252;SDS011;44050;48.884;8.762;2022-10-31T22:53:48;3.13;;;2.17;;
58252;SDS011;44050;48.884;8.762;2022-10-31T22:56:20;1.77;;;1.55;;
58252;SDS011;44050;48.884;8.762;2022-10-31T22:58:52;9.73;;;2.00;;
58252;SDS011;44050;48.884;8.762;2022-10-31T23:01:29;1.85;;;1.40;;
58252;SDS011;44050;48.884;8.762;2022-10-31T23:04:07;1.17;;;1.08;;
58252;SDS011;44050;48.884;8.762;2022-10-31T23:06:39;2.50;;;1.65;;
58252;SDS011;44050;48.884;8.762;2022-10-31T23:09:12;1.80;;;1.65;;
58252;SDS011;44050;48.884;8.762;2022-10-31T23:11:43;0.98;;;0.98;;
58252;SDS011;44050;48.884;8.762;2022-10-31T23:14:18;2.05;;;1.45;;
58252;SDS011;44050;48.884;8.762;2022-10-31T23:16:54;2.88;;;1.52;;
58252;SDS011;44050;48.884;8.762;2022-10-31T23:19:26;1.55;;;1.45;;
58252;SDS011;44050;48.884;8.762;2022-10-31T23:22:01;10.55;;;2.50;;
58252;SDS011;44050;48.884;8.762;2022-10-31T23:24:34;7.10;;;1.55;;
58252;SDS011;44050;48.884;8.762;2022-10-31T23:27:11;1.38;;;1.27;;
58252;SDS011;44050;48.884;8.762;2022-10-31T23:29:46;2.55;;;1.13;;
58252;SDS011;44050;48.884;8.762;2022-10-31T23:32:20;1.30;;;1.20;;
58252;SDS011;44050;48.884;8.762;2022-10-31T23:34:53;1.58;;;1.40;;
58252;SDS011;44050;48.884;8.762;2022-10-31T23:37:25;2.10;;;1.38;;
58252;SDS011;44050;48.884;8.762;2022-10-31T23:39:56;4.15;;;2.15;;
58252;SDS011;44050;48.884;8.762;2022-10-31T23:42:27;2.42;;;1.75;;
58252;SDS011;44050;48.884;8.762;2022-10-31T23:44:58;3.47;;;1.90;;
58252;SDS011;44050;48.884;8.762;2022-10-31T23:47:28;4.25;;;2.45;;
58252;SDS011;44050;48.884;8.762;2022-10-31T23:49:59;2.10;;;1.90;;
58252;SDS011;44050;48.884;8.762;2022-10-31T23:52:30;5.53;;;1.40;;
58252;SDS011;44050;48.884;8.762;2022-10-31T23:55:01;1.75;;;1.65;;
58252;SDS011;44050;48.884;8.762;2022-10-31T23:57:32;7.25;;;2.50;;
